[-]
Szybkie szukanie


Baner sklepu jdtech.pl
Odpowiedz 
 
Ocena wątku:
  • 0 Głosów - 0 Średnio
  • 1
  • 2
  • 3
  • 4
  • 5
Problem z GPS w Dell 5550 modemie
03-07-2016, 18:59
Post: #21
Problem z GPS w Dell 5550 modemie
Tak, zgodnie z opisami i kolorami (biały main, czarny second) na karcie.
Znajdź wszystkie posty użytkownika
Podziękuj Odpowiedz cytując ten post
03-07-2016, 22:41 (Ten post był ostatnio modyfikowany: 03-07-2016 22:47 przez szopen.)
Post: #22
Problem z GPS w Dell 5550 modemie
jeśli karta zainicjalizowała się poprawnie i ma obsługę GPS to
Archeo napisał(a):Lecą odczyty, ale typu "GPGSA,A,1,,,,,,,,,*1E", czyli jakby za krótkie.
świadczy o braku sygnału, czyli albo nie jesteś na zewnątrz, albo nie masz podłączonej właściwej anteny do właściwego gniazda (zamień wtyczki MAIN i AUX), albo masz model laptopa bez anteny GPS (wtedy podmiana nie pomoże)

fragment logu w braku zasięgu (karta DW5560):
Kod:
$GPGGA,,,,,,0,0,,,M,,,,*1B
$GPGSA,A,1,,,,,,,,,,,,,,,*1E
$GPGST,212920.890,,,,0,,,*72
$GPRMC,212920.890,V,,,,,,,030716,,,N*45
$GPGSV,4,2,14,23,37,207,,11,31,171,,31,31,083,,19,28,309,*7C
$GPGSV,4,3,14,14,22,049,,09,10,216,,06,09,310,,32,08,047,*79
$GPGSV,4,4,14,12,05,000,,25,00,033,,,,,,,,,*7D
$GPGLL,,,,,212920.890,V,N*71
$GPGSV,4,1,14,03,78,283,,22,75,087,,01,56,156,,17,37,282,*7B
$GPGSV,4,3,14,14,22,049,,09,10,216,,06,09,310,,32,08,047,*79
$GPGSV,4,4,14,12,05,000,,25,00,033,,,,,,,,,*7D
$GPGLL,,,,,212918.890,V,N*7A
$GPGGA,,,,,,0,0,,,M,,,,*1B
$GPGSA,A,1,,,,,,,,,,,,,,,*1E
$GPGST,212918.890,,,,0,,,*79
$GPRMC,212918.890,V,,,,,,,030716,,,N*4E
$GPGSV,4,2,14,23,37,207,,11,31,171,,31,31,083,,19,28,309,*7C
$GPGSV,4,1,14,03,78,283,,22,75,087,,01,56,156,,17,37,282,*7B
$GPGGA,,,,,,0,0,,,M,,,,*1B
$GPGSA,A,1,,,,,,,,,,,,,,,*1E
$GPGST,212916.890,,,,0,,,*77
$GPRMC,212916.890,V,,,,,,,030716,,,N*40
$GPGSV,4,2,14,23,37,207,,11,31,171,,31,31,083,,19,28,309,*7C
$GPGSV,4,3,14,14,22,049,,09,10,216,,06,09,310,,32,08,047,*79
$GPGSV,4,4,14,12,05,000,,25,00,033,,,,,,,,,*7D
$GPGLL,,,,,212916.890,V,N*74
$GPGSV,4,1,14,03,78,283,,22,75,087,,01,56,156,,17,37,282,*7B
$GPGGA,,,,,,0,0,,,M,,,,*1B
$GPGSA,A,1,,,,,,,,,,,,,,,*1E
$GPGST,212914.890,,,,0,,,*75
$GPRMC,212914.890,V,,,,,,,030716,,,N*42
$GPGSV,4,2,14,23,37,207,,11,31,171,,31,31,083,,19,28,309,*7C
$GPGSV,4,3,14,14,22,049,,09,10,216,,06,09,310,,32,08,047,*79
$GPGSV,4,4,14,12,05,000,,25,00,033,,,,,,,,,*7D
$GPGLL,,,,,212914.890,V,N*76
$GPGSV,4,1,14,03,78,283,,22,75,087,,01,56,156,,17,37,282,*7B
$GPGGA,,,,,,0,0,,,M,,,,*1B
$GPGSA,A,1,,,,,,,,,,,,,,,*1E
$GPGST,212912.890,,,,0,,,*73
$GPRMC,212912.890,V,,,,,,,030716,,,N*44
$GPGSV,4,2,14,23,37,207,,11,31,171,,31,31,083,,19,28,310,*74
$GPGSV,4,3,14,14,22,049,,09,10,216,,06,09,310,,32,08,047,*79
$GPGSV,4,4,14,12,05,000,,25,00,033,,,,,,,,,*7D
$GPGLL,,,,,212912.890,V,N*70
$GPGSV,4,1,14,03,78,283,,22,75,087,,01,56,156,,17,37,282,*7B
$GPGSA,A,1,,,,,,,,,,,,,,,*1E
$GPGST,212910.889,,,,0,,,*79
$GPRMC,212910.889,V,,,,,,,030716,,,N*4E
$GPGSV,4,2,14,23,37,207,,11,31,171,,31,31,083,,19,28,310,*74
$GPGSV,4,3,14,14,22,049,,09,10,216,,06,09,310,,32,08,047,*79
$GPGSV,4,4,14,12,05,000,,25,00,033,,,,,,,,,*7D
$GPGLL,,,,,212910.889,V,N*7A
$GPGGA,,,,,,0,0,,,M,,,,*1B
$GPGSV,4,1,14,03,78,283,,22,75,087,,01,56,156,,17,37,282,*7B
$GPGGA,,,,,,0,0,,,M,,,,*1B
$GPGSA,A,1,,,,,,,,,,,,,,,*1E
$GPGST,212908.889,,,,0,,,*70
$GPRMC,212908.889,V,,,,,,,030716,,,N*47
$GPGSV,4,2,14,23,37,207,,11,31,171,,31,31,083,,19,28,310,*74
$GPGSV,4,3,14,14,22,049,,09,10,216,,06,09,310,,32,08,047,*79
$GPGSV,4,4,14,12,05,000,,25,00,033,,,,,,,,,*7D
$GPGLL,,,,,212908.889,V,N*73
$GPGSV,4,1,14,03,78,283,,22,75,087,,01,56,156,,17,37,282,*7B
$GPGSA,A,1,,,,,,,,,,,,,,,*1E
$GPGST,212906.889,,,,0,,,*7E
$GPRMC,212906.889,V,,,,,,,030716,,,N*49
$GPGGA,,,,,,0,0,,,M,,,,*1B
$GPGLL,,,,,212906.889,V,N*7D
$GPGSV,4,4,14,12,05,000,,25,00,033,,,,,,,,,*7D
$GPGSV,4,3,14,14,22,049,,09,10,216,,06,09,310,,32,08,047,*79
$GPGSV,4,2,14,23,37,207,,11,31,171,,31,31,083,,19,28,310,*74
$GPGSV,4,1,14,03,78,283,,22,75,087,,01,56,156,,17,37,282,*7B
$GPGST,212904.889,,,,0,,,*7C
$GPRMC,212904.889,V,,,,,,,030716,,,N*4B
$GPGSA,A,1,,,,,,,,,,,,,,,*1E
$GPGGA,,,,,,0,0,,,M,,,,*1B
$GPGLL,,,,,212904.889,V,N*7F
$GPGSV,4,4,14,12,05,000,,25,00,033,,,,,,,,,*7D
$GPGSV,4,3,14,14,22,049,,09,10,216,,06,09,310,,32,08,047,*79
$GPGSV,4,2,14,23,37,207,,11,32,171,,31,31,083,,19,28,310,*77
$GPGSV,4,1,14,03,78,283,,22,75,087,,01,56,156,,17,37,282,*7B
$GPGSV,4,4,14,12,05,000,,25,00,033,,,,,,,,,*7D
$GPGLL,,,,,212902.889,V,N*79
$GPGGA,,,,,,0,0,,,M,,,,*1B
$GPGSA,A,1,,,,,,,,,,,,,,,*1E
$GPGST,212902.889,,,,0,,,*7A
$GPRMC,212902.889,V,,,,,,,030716,,,N*4D
$GPGSV,4,3,14,14,22,049,,09,10,216,,06,09,310,,32,08,047,*79
$GPGSV,4,2,14,23,37,207,,11,32,171,,31,31,083,,19,28,310,*77
$GPGSV,4,1,14,03,78,283,,22,75,087,,01,56,156,,17,37,282,*7B
$GPGGA,,,,,,0,0,,,M,,,,*1B
$GPGSA,A,1,,,,,,,,,,,,,,,*1E
$GPGST,212900.889,,,,0,,,*78
$GPRMC,212900.889,V,,,,,,,030716,,,N*4F
$GPGSV,4,2,14,23,37,207,,11,32,171,,31,31,083,,19,28,310,*77
$GPGSV,4,3,14,14,22,049,,09,10,216,,06,09,310,,32,08,047,*79
$GPGSV,4,4,14,12,05,000,,25,00,033,,,,,,,,,*7D
$GPGLL,,,,,212900.889,V,N*7B
$GPGSV,4,1,14,03,78,283,,22,75,087,,01,56,156,,17,37,282,*7B
$GPGST,212858.889,,,,0,,,*74
$GPRMC,212858.889,V,,,,,,,030716,,,N*43
$GPGSA,A,1,,,,,,,,,,,,,,,*1E
$GPGGA,,,,,,0,0,,,M,,,,*1B
$GPGLL,,,,,212858.889,V,N*77
$GPGSV,4,4,14,12,05,000,,25,00,033,,,,,,,,,*7D
$GPGSV,4,3,14,14,22,049,,09,10,216,,06,09,310,,32,08,047,*79
$GPGSV,4,2,14,23,37,207,,11,32,171,,31,31,083,,19,28,310,*77
$GPGSV,4,1,14,03,78,283,,22,75,087,,01,56,156,,17,37,282,*7B
$GPRMC,212856.889,V,,,,,,,030716,,,N*4D
$GPGST,212856.889,,,,0,,,*7A
$GPGSA,A,1,,,,,,,,,,,,,,,*1E
$GPGGA,,,,,,0,0,,,M,,,,*1B
$GPGLL,,,,,212856.889,V,N*79
$GPGSV,4,4,14,12,05,000,,25,00,033,,,,,,,,,*7D
$GPGSV,4,3,14,14,22,049,,09,10,216,,06,09,310,,32,08,047,*79
$GPGSV,4,2,14,23,37,207,,11,32,171,,31,31,083,,19,28,310,*77
$GPGSV,4,1,14,03,77,283,,22,75,087,,01,56,156,,17,37,282,*74
$GPGSV,4,2,14,23,37,207,,11,32,171,,31,31,083,,19,28,310,*77
$GPGSV,4,3,14,14,22,049,,09,10,216,,06,09,310,,32,08,047,*79
$GPGSV,4,4,14,12,05,000,,25,00,033,,,,,,,,,*7D
$GPGLL,,,,,212854.889,V,N*7B
$GPGGA,,,,,,0,0,,,M,,,,*1B
$GPGSA,A,1,,,,,,,,,,,,,,,*1E
$GPGST,212854.889,,,,0,,,*78
$GPRMC,212854.889,V,,,,,,,030716,,,N*4F
$GPGSV,4,1,14,03,77,283,,22,75,087,,01,57,156,,17,37,282,*75
$GPGST,212852.889,,,,0,,,*7E
$GPRMC,212852.889,V,,,,,,,030716,,,N*49
$GPGSV,4,4,14,12,05,000,,25,00,033,,,,,,,,,*7D
$GPGLL,,,,,212852.889,V,N*7D
$GPGGA,,,,,,0,0,,,M,,,,*1B
$GPGSA,A,1,,,,,,,,,,,,,,,*1E
$GPGSV,4,2,14,23,37,207,,11,32,171,,31,31,083,,19,28,310,*77
$GPGSV,4,3,14,14,22,049,,09,10,216,,06,09,310,,32,08,047,*79
$GPGSV,4,1,14,03,77,283,,22,75,087,,01,57,156,,17,37,282,*75
$GPRMC,212850.889,V,,,,,,,030716,,,N*4B
$GPGST,212850.889,,,,0,,,*7C
$GPGSA,A,1,,,,,,,,,,,,,,,*1E
$GPGGA,,,,,,0,0,,,M,,,,*1B
$GPGLL,,,,,212850.889,V,N*7F
$GPGSV,4,4,14,12,05,000,,25,00,033,,,,,,,,,*7D
$GPGSV,4,3,14,14,22,049,,09,10,216,,06,09,310,,32,08,047,*79
$GPGSV,4,2,14,23,37,207,,11,32,171,,31,31,083,,19,28,310,*77
$GPGSV,4,1,14,03,77,283,,22,75,087,,01,57,156,,17,37,282,*75
$GPRMC,212848.889,V,,,,,,,030716,,,N*42
$GPGST,212848.889,,,,0,,,*75
$GPGSA,A,1,,,,,,,,,,,,,,,*1E
$GPGGA,,,,,,0,0,,,M,,,,*1B
$GPGLL,,,,,212848.889,V,N*76
$GPGSV,4,4,14,12,05,000,,25,00,033,,,,,,,,,*7D
$GPGSV,4,3,14,14,22,049,,09,10,216,,06,09,310,,32,08,047,*79
$GPGSV,4,2,14,23,37,207,,11,32,171,,31,31,083,,19,28,310,*77
$GPGSV,4,1,14,03,77,283,,22,75,087,,01,57,156,,17,37,282,*75
$GPGSV,4,3,14,14,22,049,,09,10,216,,06,09,310,,32,08,047,*79
$GPGSV,4,4,14,12,05,000,,25,00,033,,,,,,,,,*7D
$GPGLL,,,,,212846.889,V,N*78
$GPGGA,,,,,,0,0,,,M,,,,*1B
$GPGSA,A,1,,,,,,,,,,,,,,,*1E
$GPGST,212846.889,,,,0,,,*7B
$GPRMC,212846.889,V,,,,,,,030716,,,N*4C
$GPGGA,,,,,,0,00,0.5,,M,,,,*00
$GPGSV,4,1,14,03,77,283,,22,75,087,,01,57,156,,17,37,282,*75
$GPGSV,4,2,14,23,37,207,,11,32,171,,31,31,083,,19,28,310,*77

i przy poprawnym odbiorze danych z satelit ( o innej godzinie):
Kod:
$GPGST,165438.000,6.8,13,9.4,160,13,10,51*75
$GPRMC,165438.000,A,5225.567254,N,01653.384028,E,0.000,73.5,030716,,,A*52
$GPGSV,4,1,14,27,81,218,35,10,67,136,32,08,51,296,43,18,48,068,32*71
$GPGSV,4,2,14,16,31,206,39,21,25,081,,15,14,037,24,11,12,277,*7E
$GPGSV,4,3,14,26,08,188,32,32,07,145,36,30,06,319,,07,03,295,*70
$GPGSV,4,4,14,13,02,009,,01,00,261,,,,,,,,,*71
$GPGLL,5225.567254,N,01653.384028,E,165438.000,A,A*57
$GPGGA,165438.000,5225.567254,N,01653.384028,E,1,6,1.68,50.848,M,,,,*39
$GPGSA,A,3,27,10,08,18,16,26,,,,,,,2.72,1.68,2.14*0B
$GPGSV,4,1,14,27,81,218,33,10,67,136,32,08,51,296,44,18,48,068,34*76
$GPGSV,4,2,14,16,31,206,38,21,25,081,,15,14,037,22,11,12,277,*79
$GPGSV,4,3,14,26,08,188,32,32,07,145,30,30,06,319,,07,03,295,*76
$GPGSV,4,4,14,13,02,009,,01,00,261,,,,,,,,,*71
$GPGLL,5225.567254,N,01653.384028,E,165436.000,A,A*59
$GPGGA,165436.000,5225.567254,N,01653.384028,E,1,6,1.68,50.848,M,,,,*37
$GPGSA,A,3,27,10,08,18,16,26,,,,,,,2.72,1.68,2.14*0B
$GPGST,165436.000,6.8,13,9.4,161,13,9.8,51*54
$GPRMC,165436.000,A,5225.567254,N,01653.384028,E,0.000,73.5,030716,,,A*5C
$GPGSV,4,3,14,26,08,188,32,32,07,145,26,30,06,319,,07,03,295,*71
$GPGSV,4,4,14,13,02,009,,01,00,261,,,,,,,,,*71
$GPGLL,5225.567254,N,01653.384028,E,165434.000,A,A*5B
$GPGGA,165434.000,5225.567254,N,01653.384028,E,1,6,1.68,50.848,M,,,,*35
$GPGSA,A,3,27,10,08,18,16,26,,,,,,,2.72,1.68,2.14*0B
$GPGST,165434.000,6.8,13,9.5,161,13,9.9,50*57
$GPRMC,165434.000,A,5225.567254,N,01653.384028,E,0.000,73.5,030716,,,A*5E
$GPGSV,4,2,14,16,31,206,38,21,25,081,,15,14,037,23,11,12,277,*78
$GPGSV,4,1,14,27,81,218,34,10,67,136,33,08,51,296,45,18,48,068,33*76
$GPGST,165432.000,6.7,11,9.3,160,10,9.5,39*5B
$GPRMC,165432.000,A,5225.567254,N,01653.384028,E,0.000,73.5,030716,,,A*58
$GPGSV,4,2,14,16,31,206,39,21,25,081,,15,14,037,25,11,12,277,*7F
$GPGSV,4,3,14,26,08,188,34,32,07,145,,30,06,319,32,07,03,295,*72
$GPGSV,4,4,14,13,02,009,,01,00,261,,,,,,,,,*71
$GPGLL,5225.567254,N,01653.384028,E,165432.000,A,A*5D
$GPGGA,165432.000,5225.567254,N,01653.384028,E,1,7,1.24,50.848,M,,,,*3A
$GPGSA,A,3,27,10,08,18,16,26,30,,,,,,1.81,1.24,1.32*08
$GPGSV,4,1,14,27,81,218,35,10,67,136,33,08,51,296,44,18,48,068,30*75
$GPGST,165430.000,6.6,11,9.2,159,10,9.4,39*52
$GPRMC,165430.000,A,5225.567254,N,01653.384028,E,0.000,73.5,030716,,,A*5A
$GPGSV,4,2,14,16,31,206,40,21,25,081,,15,14,037,22,11,12,277,*76
$GPGSV,4,3,14,26,08,188,34,30,06,319,32,32,06,145,,07,03,295,*73
$GPGSV,4,4,14,13,02,009,,01,00,261,,,,,,,,,*71
$GPGLL,5225.567254,N,01653.384028,E,165430.000,A,A*5F
$GPGGA,165430.000,5225.567254,N,01653.384028,E,1,7,1.24,50.848,M,,,,*38
$GPGSA,A,3,27,10,08,18,16,26,30,,,,,,1.81,1.24,1.32*08
$GPGSV,4,1,14,27,81,218,35,10,67,136,31,08,51,296,45,18,48,068,29*7E
$GPRMC,165428.000,A,5225.567254,N,01653.384028,E,0.000,73.5,030716,,,A*53
$GPGSV,4,1,14,27,81,218,33,10,67,136,34,08,51,296,44,18,48,068,35*71
$GPGSV,4,2,14,16,31,206,35,21,25,081,,15,14,037,29,11,12,277,*7F
$GPGSV,4,3,14,26,08,188,33,30,06,320,32,32,06,145,,07,03,295,*7E
$GPGSV,4,4,14,13,02,009,,01,00,261,,,,,,,,,*71
$GPGLL,5225.567254,N,01653.384028,E,165428.000,A,A*56
$GPGGA,165428.000,5225.567254,N,01653.384028,E,1,7,1.24,50.848,M,,,,*31
$GPGSA,A,3,27,10,08,18,16,26,30,,,,,,1.81,1.24,1.32*08
$GPGST,165428.000,6.6,11,9.2,160,10,9.4,39*51
$GPGSV,4,2,14,16,31,206,40,21,25,081,,15,14,037,23,11,12,277,*77
$GPGSV,4,3,14,26,08,188,33,30,06,320,31,32,06,145,,07,03,295,*7D
$GPGSV,4,4,14,13,02,009,,01,00,261,,,,,,,,,*71
$GPGLL,5225.567254,N,01653.384028,E,165426.000,A,A*58
$GPGGA,165426.000,5225.567254,N,01653.384028,E,1,7,1.24,50.848,M,,,,*3F
$GPGSA,A,3,27,10,08,18,16,26,30,,,,,,1.81,1.24,1.32*08
$GPGST,165426.000,6.6,10,9.3,161,10,9.5,39*5F
$GPRMC,165426.000,A,5225.567254,N,01653.384028,E,0.000,73.5,030716,,,A*5D
$GPGSV,4,1,14,27,82,219,33,10,67,136,33,08,51,296,44,18,48,068,33*72
$GPGGA,165424.000,5225.567254,N,01653.384028,E,1,7,1.24,50.848,M,,,,*3D
$GPGSA,A,3,27,10,08,18,16,26,30,,,,,,1.81,1.24,1.32*08
$GPGST,165424.000,6.6,11,9.3,159,11,9.5,39*56
$GPRMC,165424.000,A,5225.567254,N,01653.384028,E,0.000,73.5,030716,,,A*5F
$GPGLL,5225.567254,N,01653.384028,E,165424.000,A,A*5A
$GPGSV,4,4,14,13,02,009,,01,00,261,,,,,,,,,*71
$GPGSV,4,3,14,26,09,188,32,30,06,320,31,32,06,145,,07,03,295,*7D
$GPGSV,4,2,14,16,31,206,40,21,25,081,,15,14,037,26,11,12,277,*72
$GPGSV,4,1,14,27,82,219,32,10,67,136,32,08,51,296,43,18,48,068,34*72
$GPGGA,165422.000,5225.567254,N,01653.384028,E,1,7,1.24,50.848,M,,,,*3B
$GPGSA,A,3,27,10,08,18,16,26,30,,,,,,1.81,1.24,1.32*08
$GPGST,165422.000,6.5,11,9.4,160,10,9.5,38*5E
$GPRMC,165422.000,A,5225.567254,N,01653.384028,E,3.223,73.5,030716,,,A*59
$GPGLL,5225.567254,N,01653.384028,E,165422.000,A,A*5C
$GPGSV,4,4,14,13,02,009,,01,00,261,,,,,,,,,*71
$GPGSV,4,3,14,26,09,188,33,30,06,320,32,32,06,145,,07,03,295,*7F
$GPGSV,4,2,14,16,31,206,41,21,25,081,,15,14,037,26,11,12,277,*73
$GPGSV,4,1,14,27,82,219,34,10,67,136,35,08,51,296,44,18,48,068,32*72
$GPGSV,4,4,14,13,02,009,,01,00,261,,,,,,,,,*71
$GPGLL,5225.567003,N,01653.383147,E,165420.000,A,A*51
$GPGGA,165420.000,5225.567003,N,01653.383147,E,1,7,1.24,50.011,M,,,,*32
$GPGSA,A,3,27,10,08,18,16,26,30,,,,,,1.81,1.24,1.32*08
$GPGST,165420.000,6.5,10,9.2,160,10,9.4,39*5B
$GPRMC,165420.000,A,5225.567003,N,01653.383147,E,0.000,250.7,030716,,,A*65
$GPGSV,4,2,14,16,31,206,41,21,25,081,,15,14,037,23,11,12,277,*76
$GPGSV,4,3,14,26,09,188,34,30,06,320,29,32,06,145,,07,03,295,*72
$GPGSV,4,1,14,27,82,219,34,10,67,136,37,08,51,296,44,18,48,068,31*73
$GPGSA,A,3,27,10,08,18,16,26,30,,,,,,1.81,1.24,1.32*08
$GPGST,165418.000,6.6,10,9.2,158,10,9.4,39*58
$GPRMC,165418.000,A,5225.566911,N,01653.382968,E,1.339,250.7,030716,,,A*69
$GPGGA,165418.000,5225.566911,N,01653.382968,E,1,7,1.24,49.673,M,,,,*3C
$GPGLL,5225.566911,N,01653.382968,E,165418.000,A,A*55
$GPGSV,4,4,14,13,02,009,,01,00,261,,,,,,,,,*71
$GPGSV,4,3,14,26,09,188,33,30,06,320,30,32,06,145,,07,03,295,*7D
$GPGSV,4,2,14,16,31,206,41,21,25,081,,15,14,037,24,11,12,277,*71
$GPGSV,4,1,14,27,82,219,33,10,67,136,39,08,51,296,43,18,48,068,33*7F
$GPGST,165416.000,6.7,10,9.3,160,10,9.4,39*5D
$GPRMC,165416.000,A,5225.566925,N,01653.383039,E,0.000,250.7,030716,,,A*64
$GPGSV,4,2,14,16,31,206,42,21,25,081,,15,14,037,24,11,12,277,*72
$GPGSV,4,3,14,26,09,188,31,30,06,320,28,32,06,145,,07,03,295,*76
$GPGSV,4,4,14,13,02,009,,01,00,261,,,,,,,,,*71
$GPGLL,5225.566925,N,01653.383039,E,165416.000,A,A*50
$GPGGA,165416.000,5225.566925,N,01653.383039,E,1,7,1.24,49.595,M,,,,*32
$GPGSA,A,3,27,10,08,18,16,26,30,,,,,,1.81,1.24,1.32*08
$GPGSV,4,1,14,27,82,219,34,10,67,136,37,08,51,296,44,18,48,068,35*77
$GPRMC,165414.000,A,5225.566950,N,01653.383155,E,0.000,250.7,030716,,,A*6F
$GPGSV,4,4,15,13,02,009,,01,00,261,,33,,,29,,,,*7B
$GPGLL,5225.566950,N,01653.383155,E,165414.000,A,A*5B
$GPGGA,165414.000,5225.566950,N,01653.383155,E,1,7,1.24,49.508,M,,,,*3D
$GPGSA,A,3,27,10,08,18,16,26,30,,,,,,1.81,1.24,1.32*08
$GPGST,165414.000,6.7,11,9.3,161,10,9.5,39*5E
$GPGSV,4,2,15,16,31,206,40,21,25,081,,15,14,038,22,11,12,277,*78
$GPGSV,4,3,15,26,09,188,30,30,06,320,28,32,06,145,,07,03,295,*76
$GPGSV,4,1,15,27,82,219,35,10,67,136,37,08,51,296,44,18,48,068,33*71
$GPRMC,165412.000,A,5225.567019,N,01653.384112,E,1.295,355.7,030716,,,A*63
$GPGSV,4,4,15,13,02,010,,01,00,261,,33,,,32,,,,*79
$GPGLL,5225.567019,N,01653.384112,E,165412.000,A,A*5C
$GPGGA,165412.000,5225.567019,N,01653.384112,E,1,7,1.24,49.067,M,,,,*36
$GPGSA,A,3,27,10,08,18,16,26,30,,,,,,1.81,1.24,1.32*08
$GPGST,165412.000,6.7,10,9.2,161,10,9.4,38*58
$GPGSV,4,2,15,16,31,206,41,21,25,081,,15,14,038,28,11,12,277,*73
$GPGSV,4,3,15,26,09,188,33,30,06,320,28,32,06,145,,07,03,295,*75
$GPGSV,4,1,15,27,82,219,35,10,67,136,39,08,51,296,44,18,48,068,35*79
$GPGSA,A,3,27,10,08,18,16,26,30,,,,,,1.81,1.24,1.32*08
$GPGST,165410.000,6.8,10,9.2,161,10,9.3,37*5D
$GPRMC,165410.000,A,5225.565975,N,01653.384785,E,0.000,355.7,030716,,,A*67
$GPGGA,165410.000,5225.565975,N,01653.384785,E,1,7,1.24,48.320,M,,,,*3C
$GPGLL,5225.565975,N,01653.384785,E,165410.000,A,A*57
$GPGSV,4,4,15,13,02,010,,01,00,261,,33,,,32,,,,*79
$GPGSV,4,3,15,26,09,188,35,30,06,320,30,32,06,145,,07,03,295,*7A
$GPGSV,4,2,15,16,31,206,41,21,25,081,,15,14,038,24,11,11,277,*7C
$GPGSV,4,1,15,27,82,219,36,10,67,136,41,08,51,296,44,18,48,068,35*75
$GPGSV,4,2,15,16,31,206,42,21,25,081,,15,14,038,24,11,11,277,*7F
$GPGSV,4,3,15,26,09,188,34,30,06,320,30,32,06,145,,07,03,295,*7B
$GPGSV,4,4,15,13,02,010,,01,00,261,,33,,,33,,,,*78
$GPGLL,5225.565975,N,01653.384785,E,165408.000,A,A*5E
$GPGGA,165408.000,5225.565975,N,01653.384785,E,1,7,1.24,48.320,M,,,,*35
$GPGSA,A,3,27,10,08,18,16,26,30,,,,,,1.81,1.24,1.32*08
$GPGST,165408.000,6.9,10,9.3,159,10,9.5,39*57
$GPRMC,165408.000,A,5225.565975,N,01653.384785,E,0.000,355.7,030716,,,A*6E
$GPGSV,4,1,15,27,82,219,34,10,67,137,41,08,51,296,43,18,48,068,34*70
$GPGST,165406.000,7.0,10,9.3,161,10,9.4,39*5B
$GPRMC,165406.000,A,5225.565975,N,01653.384785,E,0.000,355.7,030716,,,A*60
$GPGSV,4,2,15,16,31,206,42,21,25,081,,15,14,038,23,11,11,277,*78
$GPGSV,4,3,15,26,09,188,33,30,06,320,28,32,06,145,,07,04,295,*72
$GPGSV,4,4,15,13,02,010,,01,00,261,,33,,,32,,,,*79
$GPGLL,5225.565975,N,01653.384785,E,165406.000,A,A*50
$GPGGA,165406.000,5225.565975,N,01653.384785,E,1,7,1.24,48.320,M,,,,*3B
$GPGSA,A,3,27,10,08,18,16,26,30,,,,,,1.81,1.24,1.32*08
$GPGSV,4,1,15,27,82,219,33,10,67,137,41,08,51,297,44,18,48,068,36*73
$GPGGA,165404.000,5225.565975,N,01653.384785,E,1,7,1.24,48.320,M,,,,*39
$GPGSA,A,3,27,10,08,18,16,26,30,,,,,,1.81,1.24,1.32*08
$GPGST,165404.000,7.2,10,9.3,159,10,9.5,38*50
$GPRMC,165404.000,A,5225.565975,N,01653.384785,E,0.000,355.7,030716,,,A*62
$GPGLL,5225.565975,N,01653.384785,E,165404.000,A,A*52
$GPGSV,4,4,15,13,02,010,,01,00,261,,33,,,33,,,,*78
$GPGSV,4,3,15,26,09,188,33,30,06,320,28,32,06,145,,07,04,295,*72
$GPGSV,4,2,15,16,31,206,42,21,25,081,,15,14,038,26,11,11,277,*7D
$GPGSV,4,1,15,27,82,219,33,10,67,137,40,08,51,297,43,18,48,068,36*75
$GPGST,165402.000,7.3,11,9.3,160,10,9.4,37*52
$GPRMC,165402.000,A,5225.565975,N,01653.384785,E,0.000,355.7,030716,,,A*64
$GPGSV,4,4,15,13,02,010,,01,00,261,,33,,,35,,,,*7E
$GPGLL,5225.565975,N,01653.384785,E,165402.000,A,A*54
$GPGGA,165402.000,5225.565975,N,01653.384785,E,1,7,1.24,48.320,M,,,,*3F
$GPGSA,A,3,27,10,08,18,16,26,30,,,,,,1.81,1.24,1.32*08
$GPGSV,4,2,15,16,31,206,41,21,25,081,,15,14,038,28,11,11,277,*70
$GPGSV,4,3,15,26,09,188,35,30,06,320,30,32,06,145,,07,04,295,*7D
$GPGSV,4,1,15,27,82,219,33,10,67,137,40,08,51,297,42,18,48,068,36*74
$GPRMC,165400.000,A,5225.565975,N,01653.384785,E,0.000,355.7,030716,,,A*66
$GPGSV,4,2,14,16,31,206,32,21,25,081,,15,14,038,25,11,11,277,*78
$GPGSV,4,3,14,26,09,188,29,30,06,320,33,32,06,145,,07,04,295,*72
$GPGSV,4,4,14,13,02,010,,01,00,260,,,,,,,,,*78
$GPGLL,5225.565975,N,01653.384785,E,165400.000,A,A*56
$GPGGA,165400.000,5225.565975,N,01653.384785,E,1,6,1.44,48.320,M,,,,*3A
$GPGSA,A,3,27,10,08,18,16,30,,,,,,,2.32,1.44,1.83*0B
$GPGST,165400.000,7.1,11,9.2,159,11,9.4,37*58
$GPGSV,4,1,14,27,82,219,38,10,67,137,35,08,51,297,44,18,48,068,36*7A
$GPGSA,A,3,27,10,08,18,16,26,30,,,,,,1.81,1.24,1.32*08
$GPGST,165358.000,6.9,11,9.2,157,11,9.5,36*55
$GPRMC,165358.000,A,5225.565975,N,01653.384785,E,0.000,355.7,030716,,,A*6C
$GPGGA,165358.000,5225.565975,N,01653.384785,E,1,7,1.24,48.320,M,,,,*37
$GPGLL,5225.565975,N,01653.384785,E,165358.000,A,A*5C
$GPGSV,4,4,14,13,02,010,,01,00,260,,,,,,,,,*78
$GPGSV,4,3,14,26,09,188,34,30,06,320,35,32,06,145,,07,04,295,*78
$GPGSV,4,2,14,16,31,206,34,21,25,081,,15,14,038,26,11,11,277,*7D
$GPGSV,4,1,14,27,82,219,40,10,67,137,36,08,51,297,39,18,48,068,33*79
$GPGST,165356.000,6.2,11,9.0,157,11,9.3,36*54
$GPRMC,165356.000,A,5225.565975,N,01653.384785,E,0.000,355.7,030716,,,A*62
$GPGGA,165356.000,5225.565975,N,01653.384785,E,1,7,1.24,48.320,M,,,,*39
$GPGSA,A,3,27,10,08,18,16,26,30,,,,,,1.81,1.24,1.32*08
$GPGLL,5225.565975,N,01653.384785,E,165356.000,A,A*52
$GPGSV,4,4,14,13,02,010,,01,00,260,,,,,,,,,*78
$GPGSV,4,3,14,26,09,188,31,30,07,320,33,32,06,145,,07,04,295,*7A
$GPGSV,4,2,14,16,31,206,31,21,25,081,,15,14,038,27,11,11,277,*79
$GPGSV,4,1,14,27,82,219,41,10,67,137,36,08,51,297,41,18,48,068,35*71
$GPRMC,165354.000,A,5225.565975,N,01653.384785,E,0.000,355.7,030716,,,A*60
$GPGSV,4,2,14,16,31,206,38,21,25,081,,15,14,038,,11,11,277,*75
$GPGSV,4,3,14,26,09,188,31,30,07,320,34,32,06,145,,07,04,295,*7D
$GPGSV,4,4,14,13,02,010,,01,00,260,,,,,,,,,*78
$GPGLL,5225.565975,N,01653.384785,E,165354.000,A,A*50
$GPGGA,165354.000,5225.565975,N,01653.384785,E,1,7,1.24,48.320,M,,,,*3B
$GPGSA,A,3,27,10,08,18,16,26,30,,,,,,1.81,1.24,1.32*08
$GPGST,165354.000,5.8,10,8.9,156,9.9,9.1,33*7E
$GPGSV,4,1,14,27,82,221,41,10,67,137,32,08,51,297,39,18,48,068,36*72
$GPGSV,4,2,14,16,31,206,38,21,25,081,,15,14,038,,11,11,277,*75
$GPGSV,4,3,14,26,09,188,31,30,07,320,33,32,06,145,,07,04,295,*7A
$GPGSV,4,4,14,13,02,010,,01,00,260,,,,,,,,,*78
$GPGLL,5225.565975,N,01653.384785,E,165352.000,A,A*56
$GPGGA,165352.000,5225.565975,N,01653.384785,E,1,7,1.24,48.320,M,,,,*3D
$GPGSA,A,3,27,10,08,18,16,26,30,,,,,,1.81,1.24,1.32*08
$GPGST,165352.000,5.3,10,9.0,155,10,9.3,33*55
$GPRMC,165352.000,A,5225.565975,N,01653.384785,E,0.000,355.7,030716,,,A*66
$GPGSV,4,1,14,27,82,221,41,10,67,137,34,08,51,297,35,18,48,068,37*79
$GPGSA,A,3,27,10,08,18,16,26,30,,,,,,1.81,1.24,1.32*08
$GPGST,165349.910,4.8,10,9.2,155,10,9.4,33*58
$GPRMC,165349.910,A,5225.565975,N,01653.384785,E,0.000,355.7,030716,,,A*64
$GPGLL,5225.565975,N,01653.384785,E,165349.910,A,A*54
$GPGGA,165349.910,5225.565975,N,01653.384785,E,1,7,1.24,48.320,M,,,,*3F
$GPGSV,4,4,14,13,02,010,,01,00,260,,,,,,,,,*78
$GPGSV,4,3,14,26,09,188,31,30,07,320,33,32,06,145,,07,04,295,*7A
$GPGSV,4,2,14,16,31,206,37,21,25,081,,15,14,038,,11,11,277,*7A
$GPGSV,4,1,14,27,82,221,41,10,67,137,32,08,51,297,35,18,48,068,36*7E
$GPGSV,4,2,14,16,31,206,37,21,26,081,,15,14,038,,11,11,277,*79
$GPGSV,4,3,14,26,09,188,32,30,07,320,33,32,06,145,,07,04,295,*79
$GPGSV,4,4,14,13,02,010,,01,00,260,,,,,,,,,*78
$GPGLL,5225.565975,N,01653.384785,E,165347.710,A,A*54
$GPGGA,165347.710,5225.565975,N,01653.384785,E,1,7,1.24,48.320,M,,,,*3F
$GPGSA,A,3,27,10,08,18,16,26,30,,,,,,1.81,1.24,1.32*08
$GPGST,165347.710,3.9,11,9.3,157,10,9.5,33*5D
$GPRMC,165347.710,A,5225.565975,N,01653.384785,E,0.000,355.7,030716,,,A*64
$GPGSV,4,1,14,27,82,221,42,10,67,137,35,08,51,297,35,18,48,068,38*74
$GPGSA,A,3,27,10,08,18,16,,,,,,,,3.53,1.70,3.10*01
$GPGST,165345.510,1.9,13,9.5,162,12,9.8,43*55
$GPRMC,165345.510,A,5225.565975,N,01653.384785,E,0.000,355.7,030716,,,A*64
$GPGGA,165345.510,5225.565975,N,01653.384785,E,1,5,1.70,48.320,M,,,,*3C
$GPGLL,5225.565975,N,01653.384785,E,165345.510,A,A*54
$GPGSV,4,4,14,13,02,010,,01,00,260,,,,,,,,,*78
$GPGSV,4,3,14,26,09,188,,30,07,320,,32,06,145,,07,04,295,*78
$GPGSV,4,2,14,16,31,206,37,21,26,081,,15,14,038,,11,11,277,*79
$GPGSV,4,1,14,27,82,221,41,10,67,137,36,08,51,297,35,18,48,068,37*7B
$GPGST,165343.310,2.6,12,9.3,165,12,9.5,43*54
$GPRMC,165343.310,A,5225.565975,N,01653.384785,E,0.068,355.7,030716,,,A*6A
$GPGGA,165343.310,5225.565975,N,01653.384785,E,1,5,1.70,48.320,M,,,,*3C
$GPGSA,A,3,27,10,08,18,16,,,,,,,,3.53,1.70,3.10*01
$GPGLL,5225.565975,N,01653.384785,E,165343.310,A,A*54
$GPGSV,4,4,14,13,02,010,,01,00,260,,,,,,,,,*78
$GPGSV,4,3,14,26,09,188,,30,07,320,,32,06,145,,07,04,295,*78
$GPGSV,4,2,14,16,31,206,37,21,26,081,,15,14,038,,11,11,277,*79
$GPGGA,,,,,,0,00,0.5,,M,,,,*00
$GPGSV,4,1,14,27,82,221,38,10,67,137,34,08,51,297,35,18,48,069,35*74

PS fixa czasem łapie dopiero po kilku minutach mimo włączonego AGPS
Odwiedź stronę użytkownika Znajdź wszystkie posty użytkownika
Podziękuj Odpowiedz cytując ten post
03-07-2016, 23:50
Post: #23
Problem z GPS w Dell 5550 modemie
Byłem na zewnątrz równo przez godzinę, położony obok gps bluetooth łapał fixa niemal natychmiast.
Czy jest możliwe, że w moim v131 jest inna antena, niż u wszystkich, którym GPS działa ?
Modem 3g działa normalnie, tylko GPS nie...
Wtyczki sprawdzałem, biała do białego main, czarna do czarnego aux, dokładnie taki modem:
http://www.tanielaptopy.eu/img/products/...2/9071.jpg
Znajdź wszystkie posty użytkownika
Podziękuj Odpowiedz cytując ten post
04-07-2016, 12:23 (Ten post był ostatnio modyfikowany: 04-07-2016 12:26 przez szopen.)
Post: #24
Problem z GPS w Dell 5550 modemie
modem 3G działa nawet na kawałku drutu (tj. jeśli podepniesz pod niego antenę GPS to też działa),
a odbiornik GPS nie działa na antenie GSM (temat jest sprawdzony, rozwiązanie z zamianą wtyczek również)

nie rozumiem jakie widzisz przeciwwskazania w zamianie w podpięciu kabelków?
(to w zasadzie jedyne co możesz zrobić, a nawet jeśli nie pomoże, to możesz je po paru godzinach zamienić znów "po staremu",
w wolnej chwili sprawdziłem kolorystykę kabli i u mnie jest szary do MAIN i biało-czarny do AUX, ale jak pisałem mam inny sprzęt)

aby skorzystać z odbiornika GPS musi być spełnione parę warunków:
- musisz mieć modem ze sprzętowym wsparciem GPS (ten chyba ma, ale na 100% jestem pewien tylko modeli Della DW5540 i DW5560 bo je osobiście używałem Tongue)
- firmware tego modemu musi mieć włączony GPS (z tym bywa różnie)
- sterowniki muszą być kompletne (ale jeśli otrzymujesz jakiekolwiek odpowiedzi to zapewne są)
- oprogramowanie sterujące też musi być kompletne (ale jeśli otrzymujesz jakiekolwiek odpowiedzi to zapewne jest) używam do tego DMBM w windows7 (akurat laptopa mam starawego latitude, w którym po aktualizacji do win10 mogą być problemy)
- musisz mieć laptopa wyposażonego w jedną antenę GSM, a drugą GPS (a nie w dwie GSM)
- antena GPS musi być wpięta do właściwego gniazda
- połączenie gniazdo-wtyk musi być poprawne
Odwiedź stronę użytkownika Znajdź wszystkie posty użytkownika
Podziękuj Odpowiedz cytując ten post
Odpowiedz 


Podobne wątki
Wątek: Autor Odpowiedzi: Wyświetleń: Ostatni post
  Problem z modemem Alcatel X200s z Virgin Mobile j833 8 2 559 27-08-2015 06:22
Ostatni post: j833
  DELL 5550 i Lenovo X200 [OK] kickick 1 3 384 28-09-2014 15:11
Ostatni post: jtytus67
  Nokia 21M-02 - problem z Ubuntu swotki 17 9 078 24-07-2014 22:04
Ostatni post: jakubd
  Dell 5550 brak Aero2 radosc 8 3 816 20-03-2014 21:26
Ostatni post: jakubd
Lightbulb Dell DW5540 z nową kartą Aero2 - działa na oryginalnym sofcie jakubd 67 76 219 25-01-2014 15:35
Ostatni post: komputel